SFJ256 RJBB-RJFF
Flight info
| Callsign | SFJ256 |
|---|---|
| Flight time | 1h 25m |
| Altitude | 34000 |
| Route | MAIKO OSRIX GUMID SOUJA Y281 STOUT Y20 KIRIN |
| Aircraft | A20N/M-SDE2E3FGHIRWXY/LB1 |
Departure
| Time | 2026-05-07 13:24 |
|---|---|
| Airport | Kansai International Airport (RJBB) |
Arrival
| Time | 2026-05-07 14:50 |
|---|---|
| Airport | Fukuoka Airport (RJFF) |
| Time | Latitude | Longitude | Altitude | Speed | Heading |
|---|---|---|---|---|---|
| 2026-05-07 13:24 | 34.41520 | 135.18338 | 1883 ft | 177 kts | 264° |
| 2026-05-07 13:24 | 34.41881 | 135.16849 | 2272 ft | 198 kts | 297° |
| 2026-05-07 13:24 | 34.42491 | 135.15318 | 2677 ft | 211 kts | 280° |
| 2026-05-07 13:25 | 34.42420 | 135.13501 | 3120 ft | 224 kts | 255° |
| 2026-05-07 13:25 | 34.42018 | 135.11700 | 3949 ft | 225 kts | 254° |
| 2026-05-07 13:25 | 34.41723 | 135.09856 | 4768 ft | 227 kts | 269° |
| 2026-05-07 13:25 | 34.42225 | 135.08060 | 5541 ft | 235 kts | 307° |
| 2026-05-07 13:26 | 34.43534 | 135.06892 | 6278 ft | 247 kts | 336° |
| 2026-05-07 13:26 | 34.45312 | 135.06688 | 6746 ft | 272 kts | 9° |
| 2026-05-07 13:26 | 34.47194 | 135.07388 | 7254 ft | 290 kts | 16° |
| 2026-05-07 13:26 | 34.49153 | 135.08110 | 7944 ft | 297 kts | 8° |
| 2026-05-07 13:27 | 34.51189 | 135.08247 | 8724 ft | 296 kts | 350° |
| 2026-05-07 13:27 | 34.53217 | 135.07819 | 9493 ft | 297 kts | 343° |
| 2026-05-07 13:27 | 34.55216 | 135.07259 | 10240 ft | 301 kts | 342° |
| 2026-05-07 13:27 | 34.57272 | 135.06581 | 10754 ft | 311 kts | 333° |
| 2026-05-07 13:28 | 34.59095 | 135.05130 | 11095 ft | 319 kts | 310° |
| 2026-05-07 13:28 | 34.60332 | 135.02914 | 11413 ft | 328 kts | 289° |
| 2026-05-07 13:28 | 34.60999 | 135.00218 | 11758 ft | 340 kts | 279° |
| 2026-05-07 13:28 | 34.61360 | 134.97356 | 12324 ft | 346 kts | 274° |
| 2026-05-07 13:29 | 34.61544 | 134.94446 | 13029 ft | 347 kts | 271° |
| 2026-05-07 13:29 | 34.61695 | 134.91550 | 13610 ft | 351 kts | 271° |
| 2026-05-07 13:29 | 34.61864 | 134.88590 | 13927 ft | 352 kts | 272° |
| 2026-05-07 13:29 | 34.62045 | 134.85626 | 13977 ft | 351 kts | 272° |
| 2026-05-07 13:30 | 34.62232 | 134.82704 | 13985 ft | 351 kts | 272° |
| 2026-05-07 13:30 | 34.62389 | 134.79747 | 13991 ft | 350 kts | 270° |
| 2026-05-07 13:30 | 34.62408 | 134.76794 | 13985 ft | 349 kts | 267° |
| 2026-05-07 13:30 | 34.62280 | 134.73819 | 14184 ft | 356 kts | 264° |
| 2026-05-07 13:31 | 34.62085 | 134.70862 | 14910 ft | 356 kts | 264° |
| 2026-05-07 13:31 | 34.61885 | 134.67879 | 15598 ft | 356 kts | 264° |
| 2026-05-07 13:31 | 34.61681 | 134.64871 | 16155 ft | 359 kts | 264° |
| 2026-05-07 13:31 | 34.61476 | 134.61890 | 16758 ft | 361 kts | 264° |
| 2026-05-07 13:32 | 34.61269 | 134.58847 | 17320 ft | 363 kts | 263° |
| 2026-05-07 13:32 | 34.61058 | 134.55783 | 17882 ft | 366 kts | 263° |
| 2026-05-07 13:32 | 34.60847 | 134.52734 | 18429 ft | 368 kts | 263° |
| 2026-05-07 13:32 | 34.60631 | 134.49634 | 18978 ft | 370 kts | 263° |
| 2026-05-07 13:33 | 34.60415 | 134.46512 | 19498 ft | 373 kts | 263° |
| 2026-05-07 13:33 | 34.60198 | 134.43416 | 20010 ft | 375 kts | 263° |
| 2026-05-07 13:33 | 34.59977 | 134.40256 | 20529 ft | 377 kts | 263° |
| 2026-05-07 13:33 | 34.59753 | 134.37087 | 21086 ft | 378 kts | 263° |
| 2026-05-07 13:34 | 34.59531 | 134.33945 | 21610 ft | 379 kts | 263° |
| 2026-05-07 13:34 | 34.59076 | 134.27544 | 22582 ft | 384 kts | 263° |
| 2026-05-07 13:34 | 34.58845 | 134.24307 | 23084 ft | 386 kts | 263° |
| 2026-05-07 13:35 | 34.58612 | 134.21074 | 23560 ft | 388 kts | 263° |
| 2026-05-07 13:35 | 34.58374 | 134.17799 | 23984 ft | 391 kts | 263° |
| 2026-05-07 13:35 | 34.58134 | 134.14504 | 24415 ft | 394 kts | 263° |
| 2026-05-07 13:35 | 34.57896 | 134.11230 | 24851 ft | 396 kts | 263° |
| 2026-05-07 13:36 | 34.57708 | 134.07887 | 25267 ft | 399 kts | 266° |
| 2026-05-07 13:36 | 34.57750 | 134.04504 | 25621 ft | 404 kts | 271° |
| 2026-05-07 13:36 | 34.58039 | 134.01129 | 25925 ft | 409 kts | 276° |
| 2026-05-07 13:36 | 34.58565 | 133.97713 | 26272 ft | 413 kts | 278° |
| 2026-05-07 13:37 | 34.59163 | 133.94281 | 26662 ft | 415 kts | 279° |
| 2026-05-07 13:37 | 34.59764 | 133.90891 | 27009 ft | 417 kts | 279° |
| 2026-05-07 13:37 | 34.60377 | 133.87440 | 27354 ft | 419 kts | 279° |
| 2026-05-07 13:37 | 34.60986 | 133.83989 | 27801 ft | 418 kts | 279° |
| 2026-05-07 13:38 | 34.61581 | 133.80597 | 28279 ft | 415 kts | 278° |
| 2026-05-07 13:38 | 34.61996 | 133.77144 | 28728 ft | 412 kts | 273° |
| 2026-05-07 13:38 | 34.62136 | 133.73674 | 29127 ft | 411 kts | 269° |
| 2026-05-07 13:38 | 34.62014 | 133.70259 | 29523 ft | 410 kts | 264° |
| 2026-05-07 13:39 | 34.61631 | 133.66832 | 29936 ft | 409 kts | 260° |
| 2026-05-07 13:39 | 34.61124 | 133.63434 | 30366 ft | 408 kts | 259° |
| 2026-05-07 13:39 | 34.60611 | 133.60103 | 30784 ft | 407 kts | 259° |
| 2026-05-07 13:39 | 34.60088 | 133.56734 | 31195 ft | 406 kts | 259° |
| 2026-05-07 13:40 | 34.59569 | 133.53387 | 31598 ft | 404 kts | 259° |
| 2026-05-07 13:40 | 34.59043 | 133.50020 | 31991 ft | 403 kts | 259° |
| 2026-05-07 13:40 | 34.58521 | 133.46674 | 32334 ft | 403 kts | 259° |
| 2026-05-07 13:40 | 34.58003 | 133.43367 | 32607 ft | 404 kts | 259° |
| 2026-05-07 13:41 | 34.57475 | 133.39999 | 32887 ft | 405 kts | 259° |
| 2026-05-07 13:41 | 34.56947 | 133.36626 | 33134 ft | 406 kts | 259° |
| 2026-05-07 13:41 | 34.56419 | 133.33260 | 33371 ft | 407 kts | 258° |
| 2026-05-07 13:41 | 34.55891 | 133.29918 | 33634 ft | 408 kts | 258° |
| 2026-05-07 13:42 | 34.55354 | 133.26512 | 33891 ft | 408 kts | 258° |
| 2026-05-07 13:42 | 34.54287 | 133.19768 | 33921 ft | 409 kts | 258° |
| 2026-05-07 13:43 | 34.53217 | 133.13017 | 33928 ft | 409 kts | 258° |
| 2026-05-07 13:43 | 34.52142 | 133.06270 | 33933 ft | 409 kts | 258° |
| 2026-05-07 13:44 | 34.51056 | 132.99481 | 33932 ft | 409 kts | 258° |
| 2026-05-07 13:44 | 34.49975 | 132.92754 | 33932 ft | 409 kts | 258° |
| 2026-05-07 13:45 | 34.48889 | 132.86018 | 33934 ft | 409 kts | 258° |
| 2026-05-07 13:45 | 34.47794 | 132.79248 | 33932 ft | 409 kts | 258° |
| 2026-05-07 13:46 | 34.46702 | 132.72525 | 33932 ft | 408 kts | 258° |
| 2026-05-07 13:46 | 34.45610 | 132.65811 | 33928 ft | 409 kts | 258° |
| 2026-05-07 13:47 | 34.44505 | 132.59038 | 33924 ft | 409 kts | 258° |
| 2026-05-07 13:47 | 34.43403 | 132.52331 | 33921 ft | 408 kts | 258° |
| 2026-05-07 13:48 | 34.42298 | 132.45628 | 33921 ft | 408 kts | 258° |
| 2026-05-07 13:48 | 34.41179 | 132.38875 | 33922 ft | 408 kts | 258° |
| 2026-05-07 13:49 | 34.40096 | 132.32163 | 33927 ft | 408 kts | 258° |
| 2026-05-07 13:49 | 34.39060 | 132.25442 | 33927 ft | 408 kts | 258° |
| 2026-05-07 13:50 | 34.38009 | 132.18698 | 33931 ft | 408 kts | 259° |
| 2026-05-07 13:50 | 34.36954 | 132.11949 | 33927 ft | 408 kts | 258° |
| 2026-05-07 13:51 | 34.35900 | 132.05244 | 33930 ft | 408 kts | 259° |
| 2026-05-07 13:51 | 34.34833 | 131.98505 | 33927 ft | 407 kts | 259° |
| 2026-05-07 13:52 | 34.33772 | 131.91797 | 33932 ft | 407 kts | 259° |
| 2026-05-07 13:52 | 34.32697 | 131.85048 | 33932 ft | 407 kts | 258° |
| 2026-05-07 13:53 | 34.31628 | 131.78363 | 33881 ft | 407 kts | 259° |
| 2026-05-07 13:53 | 34.31090 | 131.75006 | 33584 ft | 405 kts | 258° |
| 2026-05-07 13:53 | 34.30552 | 131.71663 | 33300 ft | 404 kts | 258° |
| 2026-05-07 13:53 | 34.30025 | 131.68381 | 33031 ft | 402 kts | 259° |
| 2026-05-07 13:54 | 34.29492 | 131.65068 | 32760 ft | 401 kts | 258° |
| 2026-05-07 13:54 | 34.28960 | 131.61762 | 32492 ft | 400 kts | 258° |
| 2026-05-07 13:54 | 34.28435 | 131.58510 | 32224 ft | 399 kts | 259° |
| 2026-05-07 13:54 | 34.27898 | 131.55208 | 31955 ft | 400 kts | 258° |
| 2026-05-07 13:55 | 34.27363 | 131.51903 | 31689 ft | 401 kts | 258° |
| 2026-05-07 13:55 | 34.26826 | 131.48590 | 31399 ft | 402 kts | 258° |
| 2026-05-07 13:55 | 34.26291 | 131.45316 | 30957 ft | 404 kts | 258° |
| 2026-05-07 13:55 | 34.25748 | 131.41983 | 30351 ft | 405 kts | 258° |
| 2026-05-07 13:56 | 34.25201 | 131.38643 | 29656 ft | 406 kts | 258° |
| 2026-05-07 13:56 | 34.24662 | 131.35342 | 28967 ft | 406 kts | 258° |
| 2026-05-07 13:56 | 34.24117 | 131.32027 | 28254 ft | 407 kts | 258° |
| 2026-05-07 13:56 | 34.23565 | 131.28657 | 27506 ft | 408 kts | 258° |
| 2026-05-07 13:57 | 34.23009 | 131.25291 | 26772 ft | 408 kts | 258° |
| 2026-05-07 13:57 | 34.22466 | 131.22000 | 26288 ft | 402 kts | 257° |
| 2026-05-07 13:57 | 34.21922 | 131.18709 | 25797 ft | 397 kts | 258° |
| 2026-05-07 13:57 | 34.21382 | 131.15457 | 25304 ft | 393 kts | 257° |
| 2026-05-07 13:58 | 34.20857 | 131.12285 | 24817 ft | 388 kts | 258° |
| 2026-05-07 13:58 | 34.20328 | 131.09103 | 24329 ft | 384 kts | 257° |
| 2026-05-07 13:58 | 34.19797 | 131.05954 | 23848 ft | 381 kts | 256° |
| 2026-05-07 13:58 | 34.19151 | 131.02870 | 23357 ft | 377 kts | 253° |
| 2026-05-07 13:59 | 34.18364 | 130.99910 | 22880 ft | 374 kts | 250° |
| 2026-05-07 13:59 | 34.17417 | 130.96997 | 22392 ft | 371 kts | 248° |
| 2026-05-07 13:59 | 34.16411 | 130.94138 | 21901 ft | 368 kts | 247° |
| 2026-05-07 13:59 | 34.15423 | 130.91344 | 21417 ft | 366 kts | 247° |
| 2026-05-07 14:00 | 34.14428 | 130.88531 | 20926 ft | 363 kts | 247° |
| 2026-05-07 14:00 | 34.13432 | 130.85741 | 20407 ft | 361 kts | 247° |
| 2026-05-07 14:00 | 34.12458 | 130.83002 | 19904 ft | 359 kts | 247° |
| 2026-05-07 14:00 | 34.11458 | 130.80249 | 19409 ft | 356 kts | 246° |
| 2026-05-07 14:01 | 34.10442 | 130.77530 | 18887 ft | 355 kts | 246° |
| 2026-05-07 14:01 | 34.09429 | 130.74824 | 18360 ft | 353 kts | 246° |
| 2026-05-07 14:01 | 34.08433 | 130.72165 | 18007 ft | 353 kts | 246° |
| 2026-05-07 14:01 | 34.07417 | 130.69458 | 17917 ft | 354 kts | 245° |
| 2026-05-07 14:02 | 34.06401 | 130.66742 | 17913 ft | 355 kts | 245° |
| 2026-05-07 14:02 | 34.05393 | 130.64061 | 17918 ft | 355 kts | 246° |
| 2026-05-07 14:02 | 34.04384 | 130.61368 | 17910 ft | 344 kts | 246° |
| 2026-05-07 14:02 | 34.03532 | 130.58748 | 17898 ft | 327 kts | 256° |
| 2026-05-07 14:03 | 34.03473 | 130.56073 | 17894 ft | 316 kts | 277° |
| 2026-05-07 14:03 | 34.04294 | 130.53696 | 17895 ft | 312 kts | 299° |
| 2026-05-07 14:03 | 34.05782 | 130.51767 | 17908 ft | 316 kts | 310° |
| 2026-05-07 14:03 | 34.07439 | 130.50001 | 17748 ft | 318 kts | 311° |
| 2026-05-07 14:04 | 34.09098 | 130.48300 | 17396 ft | 315 kts | 312° |
| 2026-05-07 14:04 | 34.10767 | 130.46594 | 17047 ft | 312 kts | 312° |
| 2026-05-07 14:04 | 34.12421 | 130.44900 | 16699 ft | 313 kts | 312° |
| 2026-05-07 14:04 | 34.14139 | 130.43108 | 16359 ft | 342 kts | 312° |
| 2026-05-07 14:05 | 34.15923 | 130.41200 | 16001 ft | 345 kts | 312° |
| 2026-05-07 14:05 | 34.17707 | 130.39287 | 15649 ft | 339 kts | 312° |
| 2026-05-07 14:05 | 34.19461 | 130.37405 | 15294 ft | 334 kts | 312° |
| 2026-05-07 14:05 | 34.21161 | 130.35574 | 14939 ft | 329 kts | 312° |
| 2026-05-07 14:06 | 34.22863 | 130.33734 | 14578 ft | 324 kts | 311° |
| 2026-05-07 14:06 | 34.24511 | 130.31944 | 14228 ft | 320 kts | 312° |
| 2026-05-07 14:06 | 34.26137 | 130.30118 | 13863 ft | 313 kts | 306° |
| 2026-05-07 14:06 | 34.27226 | 130.27933 | 13491 ft | 298 kts | 283° |
| 2026-05-07 14:07 | 34.27432 | 130.25539 | 13129 ft | 288 kts | 261° |
| 2026-05-07 14:07 | 34.27003 | 130.23198 | 12779 ft | 283 kts | 253° |
| 2026-05-07 14:07 | 34.26435 | 130.20927 | 12416 ft | 281 kts | 252° |
| 2026-05-07 14:07 | 34.25846 | 130.18687 | 12053 ft | 278 kts | 252° |
| 2026-05-07 14:08 | 34.25264 | 130.16502 | 11690 ft | 276 kts | 252° |
| 2026-05-07 14:08 | 34.24676 | 130.14304 | 11322 ft | 273 kts | 252° |
| 2026-05-07 14:08 | 34.24091 | 130.12125 | 10961 ft | 271 kts | 252° |
| 2026-05-07 14:08 | 34.23521 | 130.09992 | 10601 ft | 269 kts | 252° |
| 2026-05-07 14:09 | 34.22945 | 130.07852 | 10295 ft | 265 kts | 252° |
| 2026-05-07 14:09 | 34.22376 | 130.05747 | 10001 ft | 262 kts | 252° |
| 2026-05-07 14:09 | 34.21808 | 130.03650 | 9709 ft | 262 kts | 252° |
| 2026-05-07 14:09 | 34.21248 | 130.01585 | 9416 ft | 262 kts | 252° |
| 2026-05-07 14:10 | 34.20680 | 129.99493 | 9124 ft | 261 kts | 252° |
| 2026-05-07 14:10 | 34.20118 | 129.97407 | 8936 ft | 261 kts | 252° |
| 2026-05-07 14:10 | 34.19562 | 129.95348 | 8928 ft | 261 kts | 252° |
| 2026-05-07 14:10 | 34.18999 | 129.93256 | 8924 ft | 261 kts | 252° |
| 2026-05-07 14:11 | 34.18433 | 129.91162 | 8925 ft | 262 kts | 252° |
| 2026-05-07 14:11 | 34.17866 | 129.89067 | 8926 ft | 262 kts | 252° |
| 2026-05-07 14:11 | 34.17308 | 129.87004 | 8926 ft | 262 kts | 252° |
| 2026-05-07 14:11 | 34.16741 | 129.84907 | 8929 ft | 262 kts | 252° |
| 2026-05-07 14:12 | 34.16175 | 129.82812 | 8929 ft | 262 kts | 252° |
| 2026-05-07 14:12 | 34.15616 | 129.80747 | 8931 ft | 262 kts | 252° |
| 2026-05-07 14:12 | 34.15037 | 129.78659 | 8932 ft | 262 kts | 248° |
| 2026-05-07 14:12 | 34.14003 | 129.76852 | 8927 ft | 265 kts | 222° |
| 2026-05-07 14:13 | 34.12346 | 129.75825 | 8911 ft | 274 kts | 197° |
| 2026-05-07 14:13 | 34.10444 | 129.75783 | 8607 ft | 283 kts | 171° |
| 2026-05-07 14:13 | 34.08649 | 129.76804 | 8284 ft | 290 kts | 144° |
| 2026-05-07 14:13 | 34.07373 | 129.78719 | 7963 ft | 298 kts | 117° |
| 2026-05-07 14:14 | 34.06759 | 129.81071 | 7660 ft | 299 kts | 105° |
| 2026-05-07 14:14 | 34.06353 | 129.83527 | 7342 ft | 297 kts | 102° |
| 2026-05-07 14:14 | 34.05988 | 129.85969 | 7021 ft | 294 kts | 102° |
| 2026-05-07 14:14 | 34.05638 | 129.88353 | 6703 ft | 291 kts | 102° |
| 2026-05-07 14:15 | 34.05288 | 129.90745 | 6382 ft | 288 kts | 102° |
| 2026-05-07 14:15 | 34.04942 | 129.93111 | 6062 ft | 285 kts | 102° |
| 2026-05-07 14:15 | 34.04602 | 129.95456 | 5747 ft | 281 kts | 102° |
| 2026-05-07 14:15 | 34.04276 | 129.97729 | 5500 ft | 276 kts | 102° |
| 2026-05-07 14:16 | 34.03955 | 129.99992 | 5251 ft | 271 kts | 102° |
| 2026-05-07 14:16 | 34.03642 | 130.02216 | 5015 ft | 265 kts | 102° |
| 2026-05-07 14:16 | 34.03346 | 130.04350 | 4944 ft | 259 kts | 102° |
| 2026-05-07 14:16 | 34.03047 | 130.06506 | 4939 ft | 260 kts | 102° |
| 2026-05-07 14:17 | 34.02747 | 130.08664 | 4940 ft | 260 kts | 102° |
| 2026-05-07 14:17 | 34.02447 | 130.10825 | 4939 ft | 261 kts | 102° |
| 2026-05-07 14:17 | 34.02152 | 130.12959 | 4938 ft | 261 kts | 102° |
| 2026-05-07 14:17 | 34.01852 | 130.15120 | 4936 ft | 261 kts | 102° |
| 2026-05-07 14:18 | 34.01553 | 130.17281 | 4942 ft | 261 kts | 102° |
| 2026-05-07 14:18 | 34.01258 | 130.19411 | 4943 ft | 261 kts | 102° |
| 2026-05-07 14:18 | 34.00958 | 130.21570 | 4945 ft | 261 kts | 102° |
| 2026-05-07 14:18 | 34.00657 | 130.23732 | 4942 ft | 261 kts | 100° |
| 2026-05-07 14:19 | 34.00705 | 130.25922 | 4926 ft | 264 kts | 74° |
| 2026-05-07 14:19 | 34.01574 | 130.27835 | 4940 ft | 265 kts | 49° |
| 2026-05-07 14:19 | 34.02848 | 130.29454 | 4945 ft | 265 kts | 43° |
| 2026-05-07 14:19 | 34.04187 | 130.30995 | 4947 ft | 265 kts | 42° |
| 2026-05-07 14:20 | 34.05517 | 130.32497 | 4944 ft | 265 kts | 42° |
| 2026-05-07 14:20 | 34.06868 | 130.34016 | 4942 ft | 264 kts | 42° |
| 2026-05-07 14:20 | 34.08219 | 130.35535 | 4944 ft | 264 kts | 41° |
| 2026-05-07 14:20 | 34.09738 | 130.36757 | 4935 ft | 261 kts | 15° |
| 2026-05-07 14:21 | 34.11486 | 130.36987 | 4940 ft | 254 kts | 346° |
| 2026-05-07 14:21 | 34.13074 | 130.36173 | 4940 ft | 245 kts | 315° |
| 2026-05-07 14:21 | 34.14123 | 130.34598 | 4949 ft | 239 kts | 296° |
| 2026-05-07 14:21 | 34.14889 | 130.32844 | 4945 ft | 238 kts | 292° |
| 2026-05-07 14:22 | 34.15613 | 130.31038 | 4940 ft | 238 kts | 292° |
| 2026-05-07 14:22 | 34.16328 | 130.29227 | 4944 ft | 238 kts | 292° |
| 2026-05-07 14:22 | 34.17039 | 130.27416 | 4939 ft | 238 kts | 292° |
| 2026-05-07 14:22 | 34.17741 | 130.25633 | 4934 ft | 238 kts | 292° |
| 2026-05-07 14:23 | 34.18450 | 130.23820 | 4935 ft | 238 kts | 292° |
| 2026-05-07 14:23 | 34.19159 | 130.22008 | 4937 ft | 238 kts | 291° |
| 2026-05-07 14:23 | 34.19859 | 130.20219 | 4938 ft | 238 kts | 292° |
| 2026-05-07 14:23 | 34.20569 | 130.18407 | 4937 ft | 238 kts | 292° |
| 2026-05-07 14:24 | 34.21279 | 130.16591 | 4934 ft | 238 kts | 292° |
| 2026-05-07 14:24 | 34.21991 | 130.14777 | 4933 ft | 238 kts | 292° |
| 2026-05-07 14:24 | 34.22692 | 130.12985 | 4936 ft | 238 kts | 290° |
| 2026-05-07 14:24 | 34.23063 | 130.11073 | 4924 ft | 232 kts | 264° |
| 2026-05-07 14:25 | 34.22557 | 130.09248 | 4925 ft | 231 kts | 233° |
| 2026-05-07 14:25 | 34.21329 | 130.08041 | 4925 ft | 235 kts | 204° |
| 2026-05-07 14:25 | 34.19740 | 130.07506 | 4938 ft | 237 kts | 194° |
| 2026-05-07 14:25 | 34.18109 | 130.07155 | 4937 ft | 237 kts | 192° |
| 2026-05-07 14:26 | 34.16470 | 130.06838 | 4935 ft | 237 kts | 192° |
| 2026-05-07 14:26 | 34.14852 | 130.06531 | 4933 ft | 237 kts | 192° |
| 2026-05-07 14:26 | 34.13210 | 130.06220 | 4933 ft | 237 kts | 192° |
| 2026-05-07 14:26 | 34.11569 | 130.05907 | 4936 ft | 237 kts | 192° |
| 2026-05-07 14:27 | 34.09951 | 130.05602 | 4932 ft | 237 kts | 192° |
| 2026-05-07 14:27 | 34.08311 | 130.05295 | 4932 ft | 237 kts | 192° |
| 2026-05-07 14:27 | 34.06671 | 130.04990 | 4933 ft | 237 kts | 192° |
| 2026-05-07 14:27 | 34.05030 | 130.04678 | 4935 ft | 237 kts | 192° |
| 2026-05-07 14:28 | 34.03413 | 130.04370 | 4936 ft | 237 kts | 192° |
| 2026-05-07 14:28 | 34.01778 | 130.04059 | 4936 ft | 236 kts | 192° |
| 2026-05-07 14:28 | 34.00143 | 130.03748 | 4938 ft | 236 kts | 192° |
| 2026-05-07 14:28 | 33.98530 | 130.03439 | 4938 ft | 237 kts | 192° |
| 2026-05-07 14:29 | 33.96891 | 130.03126 | 4940 ft | 237 kts | 192° |
| 2026-05-07 14:29 | 33.95253 | 130.02811 | 4944 ft | 237 kts | 192° |
| 2026-05-07 14:29 | 33.93612 | 130.02492 | 4943 ft | 237 kts | 192° |
| 2026-05-07 14:29 | 33.91998 | 130.02181 | 4941 ft | 237 kts | 192° |
| 2026-05-07 14:30 | 33.90363 | 130.01865 | 4939 ft | 237 kts | 192° |
| 2026-05-07 14:30 | 33.88743 | 130.01552 | 4943 ft | 237 kts | 192° |
| 2026-05-07 14:30 | 33.87091 | 130.01230 | 4942 ft | 237 kts | 192° |
| 2026-05-07 14:30 | 33.85491 | 130.00920 | 4939 ft | 229 kts | 192° |
| 2026-05-07 14:31 | 33.83950 | 130.00627 | 4933 ft | 214 kts | 192° |
| 2026-05-07 14:31 | 33.82518 | 130.00363 | 4925 ft | 200 kts | 192° |
| 2026-05-07 14:31 | 33.81207 | 130.00127 | 4915 ft | 185 kts | 192° |
| 2026-05-07 14:31 | 33.79934 | 129.99901 | 4931 ft | 183 kts | 192° |
| 2026-05-07 14:32 | 33.78663 | 129.99677 | 4941 ft | 183 kts | 192° |
| 2026-05-07 14:32 | 33.77409 | 129.99454 | 4947 ft | 184 kts | 192° |
| 2026-05-07 14:32 | 33.76136 | 129.99226 | 4952 ft | 184 kts | 192° |
| 2026-05-07 14:32 | 33.74857 | 129.98997 | 4955 ft | 184 kts | 192° |
| 2026-05-07 14:33 | 33.73598 | 129.98775 | 4956 ft | 184 kts | 192° |
| 2026-05-07 14:33 | 33.72325 | 129.98552 | 4955 ft | 184 kts | 190° |
| 2026-05-07 14:33 | 33.71039 | 129.98700 | 4933 ft | 192 kts | 157° |
| 2026-05-07 14:33 | 33.70045 | 129.99803 | 4949 ft | 202 kts | 118° |
| 2026-05-07 14:34 | 33.69781 | 130.01445 | 4958 ft | 208 kts | 84° |
| 2026-05-07 14:34 | 33.70089 | 130.03151 | 4971 ft | 209 kts | 74° |
| 2026-05-07 14:34 | 33.70528 | 130.04825 | 4958 ft | 210 kts | 72° |
| 2026-05-07 14:34 | 33.70987 | 130.06465 | 4956 ft | 210 kts | 72° |
| 2026-05-07 14:35 | 33.71456 | 130.08125 | 4957 ft | 209 kts | 72° |
| 2026-05-07 14:35 | 33.71928 | 130.09786 | 4958 ft | 209 kts | 72° |
| 2026-05-07 14:35 | 33.72404 | 130.11449 | 4954 ft | 210 kts | 72° |
| 2026-05-07 14:35 | 33.72875 | 130.13092 | 4951 ft | 210 kts | 72° |
| 2026-05-07 14:36 | 33.73351 | 130.14760 | 4950 ft | 210 kts | 72° |
| 2026-05-07 14:36 | 33.73824 | 130.16422 | 4951 ft | 209 kts | 72° |
| 2026-05-07 14:36 | 33.74288 | 130.18057 | 4954 ft | 209 kts | 72° |
| 2026-05-07 14:36 | 33.74759 | 130.19716 | 4953 ft | 209 kts | 72° |
| 2026-05-07 14:37 | 33.75232 | 130.21376 | 4957 ft | 209 kts | 72° |
| 2026-05-07 14:37 | 33.76044 | 130.24710 | 4937 ft | 207 kts | 95° |
| 2026-05-07 14:37 | 33.75624 | 130.26308 | 4939 ft | 199 kts | 134° |
| 2026-05-07 14:38 | 33.74539 | 130.27251 | 4967 ft | 191 kts | 164° |
| 2026-05-07 14:38 | 33.73283 | 130.27695 | 4970 ft | 189 kts | 171° |
| 2026-05-07 14:38 | 33.71994 | 130.28050 | 4956 ft | 189 kts | 172° |
| 2026-05-07 14:38 | 33.70703 | 130.28391 | 4959 ft | 189 kts | 172° |
| 2026-05-07 14:39 | 33.69411 | 130.28726 | 4960 ft | 189 kts | 172° |
| 2026-05-07 14:39 | 33.68136 | 130.29057 | 4962 ft | 189 kts | 172° |
| 2026-05-07 14:39 | 33.66844 | 130.29393 | 4958 ft | 189 kts | 172° |
| 2026-05-07 14:39 | 33.65551 | 130.29729 | 4957 ft | 189 kts | 170° |
| 2026-05-07 14:40 | 33.64361 | 130.30391 | 4939 ft | 197 kts | 138° |
| 2026-05-07 14:40 | 33.63511 | 130.31717 | 4974 ft | 202 kts | 125° |
| 2026-05-07 14:40 | 33.62801 | 130.33180 | 4972 ft | 202 kts | 122° |
| 2026-05-07 14:40 | 33.62130 | 130.34644 | 4967 ft | 202 kts | 122° |
| 2026-05-07 14:41 | 33.61454 | 130.36140 | 4967 ft | 202 kts | 122° |
| 2026-05-07 14:41 | 33.60791 | 130.37617 | 4966 ft | 202 kts | 122° |
| 2026-05-07 14:41 | 33.60079 | 130.39085 | 4790 ft | 199 kts | 135° |
| 2026-05-07 14:41 | 33.59078 | 130.40166 | 4568 ft | 191 kts | 148° |
| 2026-05-07 14:42 | 33.57968 | 130.41000 | 4346 ft | 187 kts | 157° |
| 2026-05-07 14:42 | 33.56784 | 130.41689 | 4124 ft | 186 kts | 159° |
| 2026-05-07 14:42 | 33.55624 | 130.42319 | 3988 ft | 179 kts | 160° |
| 2026-05-07 14:42 | 33.54482 | 130.42935 | 4042 ft | 178 kts | 160° |
| 2026-05-07 14:43 | 33.53379 | 130.43532 | 3993 ft | 174 kts | 160° |
| 2026-05-07 14:43 | 33.52264 | 130.44135 | 3986 ft | 174 kts | 160° |
| 2026-05-07 14:43 | 33.51150 | 130.44736 | 3895 ft | 175 kts | 160° |
| 2026-05-07 14:43 | 33.50051 | 130.45325 | 3656 ft | 171 kts | 160° |
| 2026-05-07 14:44 | 33.48999 | 130.45894 | 3404 ft | 160 kts | 160° |
| 2026-05-07 14:44 | 33.47975 | 130.46452 | 3159 ft | 159 kts | 160° |
| 2026-05-07 14:44 | 33.46978 | 130.46992 | 2982 ft | 159 kts | 160° |
| 2026-05-07 14:44 | 33.45961 | 130.47543 | 2984 ft | 159 kts | 160° |
| 2026-05-07 14:45 | 33.44943 | 130.48090 | 2978 ft | 159 kts | 160° |
| 2026-05-07 14:45 | 33.43944 | 130.48657 | 2975 ft | 161 kts | 151° |
| 2026-05-07 14:45 | 33.43269 | 130.49744 | 2953 ft | 170 kts | 106° |
| 2026-05-07 14:45 | 33.43426 | 130.51154 | 2961 ft | 176 kts | 60° |
| 2026-05-07 14:46 | 33.44268 | 130.52182 | 2981 ft | 175 kts | 35° |
| 2026-05-07 14:46 | 33.45283 | 130.52998 | 2976 ft | 174 kts | 29° |
| 2026-05-07 14:46 | 33.46429 | 130.53358 | 2839 ft | 169 kts | 348° |
| 2026-05-07 14:46 | 33.47493 | 130.52863 | 2649 ft | 163 kts | 324° |
| 2026-05-07 14:47 | 33.48415 | 130.52148 | 2455 ft | 151 kts | 321° |
| 2026-05-07 14:47 | 33.49276 | 130.51485 | 2214 ft | 141 kts | 323° |
| 2026-05-07 14:47 | 33.50110 | 130.50882 | 1969 ft | 141 kts | 325° |
| 2026-05-07 14:47 | 33.50960 | 130.50291 | 1719 ft | 140 kts | 326° |
| 2026-05-07 14:48 | 33.51815 | 130.49709 | 1472 ft | 140 kts | 327° |
| 2026-05-07 14:48 | 33.52652 | 130.49133 | 1221 ft | 140 kts | 327° |
| 2026-05-07 14:48 | 33.53495 | 130.48543 | 997 ft | 139 kts | 327° |
| 2026-05-07 14:48 | 33.54321 | 130.47954 | 794 ft | 138 kts | 328° |
| 2026-05-07 14:49 | 33.55173 | 130.47380 | 590 ft | 138 kts | 331° |
| 2026-05-07 14:49 | 33.56012 | 130.46826 | 415 ft | 138 kts | 330° |
| 2026-05-07 14:49 | 33.56855 | 130.46257 | 228 ft | 137 kts | 331° |
| 2026-05-07 14:49 | 33.57684 | 130.45692 | 52 ft | 136 kts | 332° |
| 2026-05-07 14:50 | 33.58424 | 130.45189 | 43 ft | 99 kts | 330° |
| 2026-05-07 14:50 | 33.58876 | 130.44881 | 43 ft | 47 kts | 329° |
| 2026-05-07 14:50 | 33.59077 | 130.44785 | 43 ft | 26 kts | 352° |
| 2026-05-07 14:50 | 33.59225 | 130.44771 | 43 ft | 12 kts | 360° |
| 2026-05-07 14:51 | 33.59288 | 130.44771 | 43 ft | 6 kts | 0° |
| 2026-05-07 14:51 | 33.59329 | 130.44771 | 43 ft | 3 kts | 0° |
| 2026-05-07 14:51 | 33.59361 | 130.44769 | 43 ft | 5 kts | 355° |
| 2026-05-07 14:51 | 33.59404 | 130.44746 | 43 ft | 11 kts | 329° |
| 2026-05-07 14:52 | 33.59504 | 130.44676 | 43 ft | 17 kts | 330° |
| 2026-05-07 14:52 | 33.59613 | 130.44603 | 43 ft | 17 kts | 330° |
| 2026-05-07 14:52 | 33.59712 | 130.44536 | 43 ft | 15 kts | 329° |
| 2026-05-07 14:52 | 33.59778 | 130.44524 | 43 ft | 10 kts | 46° |
| 2026-05-07 14:53 | 33.59820 | 130.44586 | 43 ft | 8 kts | 62° |
| 2026-05-07 14:53 | 33.59835 | 130.44624 | 43 ft | 4 kts | 60° |
| 2026-05-07 14:53 | 33.59848 | 130.44652 | 43 ft | 3 kts | 60° |
| 2026-05-07 14:53 | 33.59849 | 130.44653 | 43 ft | 0 kts | 60° |